CYNR

METAR CYNR 310000Z AUTO 01008KT 9SM SCT086 BKN120 24/09 A2997 RMK AO2 SLP145
METAR
LOCATION
CYNR
DATE - TIME
310000Z
WIND
010 TRUE @ 8 KNOTS
VISIBILITY
9SM
RUNWAY VISUAL RANGE
NOT REPORTED
WEATHER
CLOUDINESS
SCT086 BKN120
TEMP / DEWPOINT
24 ºC / 9 ºC
ALTIMETER
29.97 in. Hg
RECENT WEATHER
NOT REPORTED
WIND SHEAR
NOT REPORTED
REMARKS
RMK AO2 SLP145
SEA LEVEL PRESSURE: hPa

CYNR

METAR CYNR 302300Z AUTO 03004KT 9SM BKN078 21/10 A2998 RMK AO2 SLP150
METAR
LOCATION
CYNR
DATE - TIME
302300Z
WIND
030 TRUE @ 4 KNOTS
VISIBILITY
9SM
RUNWAY VISUAL RANGE
NOT REPORTED
WEATHER
CLOUDINESS
BKN078
TEMP / DEWPOINT
21 ºC / 10 ºC
ALTIMETER
29.98 in. Hg
RECENT WEATHER
NOT REPORTED
WIND SHEAR
NOT REPORTED
REMARKS
RMK AO2 SLP150
SEA LEVEL PRESSURE: hPa

CYNR

METAR CYNR 302200Z AUTO 34009G17KT 9SM SCT080 25/08 A2997 RMK AO2 SLP145
METAR
LOCATION
CYNR
DATE - TIME
302200Z
WIND
340 TRUE @ 9 KNOTS GUSTS 17 KNOTS
VISIBILITY
9SM
RUNWAY VISUAL RANGE
NOT REPORTED
WEATHER
CLOUDINESS
SCT080
TEMP / DEWPOINT
25 ºC / 8 ºC
ALTIMETER
29.97 in. Hg
RECENT WEATHER
NOT REPORTED
WIND SHEAR
NOT REPORTED
REMARKS
RMK AO2 SLP145
SEA LEVEL PRESSURE: hPa

Your time UTC time
 
 
Weather data provided by AXYS Technologies Inc., www.axystechnologies.com
 
Station History